Time;durP1;ratioP1;P1;durP2;ratioP2;P2;SDS_P1;SDS_P2;PMS_P1;PMS_P2;Temp;Humidity;BMP_temperature;BMP_pressure;BME280_temperature;BME280_humidity;BME280_pressure;Samples;Min_cycle;Max_cycle;Signal;HPM_P1;HPM_P2
2022/03/18 00:00:20;;;;;;;19.33;12.63;;;4.20;99.90;;;;;;2613381;54;20414;-76
2022/03/18 00:02:53;;;;;;;25.07;12.23;;;4.10;99.90;;;;;;2612306;54;20447;-77
2022/03/18 00:05:20;;;;;;;17.93;13.70;;;4.10;99.90;;;;;;2612241;54;20395;-76
2022/03/18 00:07:46;;;;;;;20.37;14.40;;;3.90;99.90;;;;;;2611915;54;20399;-76
2022/03/18 00:10:13;;;;;;;18.10;13.60;;;3.80;99.90;;;;;;2611392;54;20412;-76
2022/03/18 00:12:40;;;;;;;20.23;12.30;;;3.90;99.90;;;;;;2610348;47;20429;-76
2022/03/18 00:15:09;;;;;;;16.30;13.10;;;3.90;99.90;;;;;;2612413;54;20938;-76
2022/03/18 00:17:35;;;;;;;20.03;14.07;;;4.00;99.90;;;;;;2612009;46;20482;-76
2022/03/18 00:20:01;;;;;;;19.80;12.03;;;3.90;99.90;;;;;;2611810;54;20418;-76
2022/03/18 00:22:27;;;;;;;15.73;12.47;;;3.90;99.90;;;;;;2609692;47;20424;-76
2022/03/18 00:24:52;;;;;;;24.53;13.87;;;3.70;99.90;;;;;;2610221;54;20953;-78
2022/03/18 00:27:18;;;;;;;26.77;13.60;;;3.70;99.90;;;;;;2610717;47;20966;-76
2022/03/18 00:29:44;;;;;;;16.70;12.47;;;3.80;99.90;;;;;;2611876;47;20222;-78
2022/03/18 00:32:10;;;;;;;18.47;12.27;;;3.80;99.90;;;;;;2609743;47;20174;-76
2022/03/18 00:34:36;;;;;;;20.23;13.20;;;3.80;99.90;;;;;;2608364;54;20426;-77
2022/03/18 00:37:02;;;;;;;17.07;11.73;;;3.60;99.90;;;;;;2610670;54;20436;-77
2022/03/18 00:39:29;;;;;;;16.67;13.80;;;3.60;99.90;;;;;;2611067;39;20827;-78
2022/03/18 00:41:56;;;;;;;17.90;12.60;;;;;;;;;;2610320;54;20408;-75
2022/03/18 00:44:25;;;;;;;21.03;12.00;;;3.70;99.90;;;;;;2611726;54;20390;-75
2022/03/18 00:46:52;;;;;;;18.90;12.33;;;3.50;99.90;;;;;;2610659;47;20454;-76
2022/03/18 00:52:07;;;;;;;20.20;12.60;;;3.70;99.90;;;;;;2611535;47;20443;-75
2022/03/18 00:54:39;;;;;;;25.63;14.07;;;3.70;99.90;;;;;;2612121;54;20402;-75
2022/03/18 00:57:06;;;;;;;13.37;10.67;;;;;;;;;;2611048;39;20932;-75
2022/03/18 00:59:32;;;;;;;23.27;12.50;;;3.50;99.90;;;;;;2611446;47;20434;-77
2022/03/18 01:01:59;;;;;;;18.60;13.27;;;3.50;99.90;;;;;;2611213;54;20973;-76
2022/03/18 01:04:26;;;;;;;17.40;11.97;;;3.50;99.90;;;;;;2611997;54;20981;-76
2022/03/18 01:06:52;;;;;;;15.63;11.10;;;;;;;;;;2610344;54;20818;-77
2022/03/18 01:09:20;;;;;;;15.20;11.03;;;3.40;99.90;;;;;;2611905;54;20612;-76
2022/03/18 01:11:46;;;;;;;14.40;11.20;;;3.40;99.90;;;;;;2609025;47;20413;-76
2022/03/18 01:14:12;;;;;;;17.27;11.70;;;3.50;99.90;;;;;;2610442;46;20466;-76
2022/03/18 01:16:38;;;;;;;20.93;12.50;;;3.50;99.90;;;;;;2610686;47;20423;-76
2022/03/18 01:19:04;;;;;;;20.17;14.40;;;3.50;99.90;;;;;;2611628;46;20410;-75
2022/03/18 01:21:30;;;;;;;14.53;12.00;;;;;;;;;;2611790;51;20523;-77
2022/03/18 01:23:57;;;;;;;16.93;12.77;;;3.10;99.90;;;;;;2610994;47;20955;-77
2022/03/18 01:26:24;;;;;;;18.90;12.37;;;3.30;99.90;;;;;;2609494;47;20920;-76
2022/03/18 01:28:51;;;;;;;19.27;12.77;;;3.20;99.90;;;;;;2611899;39;20844;-76
2022/03/18 01:31:17;;;;;;;21.17;11.90;;;3.20;99.90;;;;;;2610761;47;20419;-76
2022/03/18 01:33:43;;;;;;;16.50;11.17;;;3.30;99.90;;;;;;2609867;47;20419;-77
2022/03/18 01:36:11;;;;;;;18.07;11.00;;;;;;;;;;2610933;47;21790;-76
2022/03/18 01:38:37;;;;;;;16.97;12.43;;;3.20;99.90;;;;;;2611627;39;20823;-76
2022/03/18 01:41:03;;;;;;;19.33;10.70;;;3.30;99.90;;;;;;2611235;39;20781;-76
2022/03/18 01:43:37;;;;;;;14.47;11.00;;;3.30;99.90;;;;;;2610460;39;21090;-76
2022/03/18 01:46:03;;;;;;;15.70;10.40;;;;;;;;;;2611162;54;20939;-75
2022/03/18 01:48:29;;;;;;;19.17;11.17;;;3.00;99.90;;;;;;2612900;39;21075;-76
2022/03/18 01:50:55;;;;;;;23.40;13.40;;;3.00;99.90;;;;;;2611374;54;20403;-76
2022/03/18 01:53:21;;;;;;;18.27;12.37;;;3.00;99.90;;;;;;2612981;31;21213;-77
2022/03/18 01:55:47;;;;;;;18.97;11.47;;;;;;;;;;2611784;54;21592;-78
2022/03/18 01:58:13;;;;;;;18.27;12.37;;;3.00;99.90;;;;;;2612101;47;20226;-75
2022/03/18 02:00:39;;;;;;;19.17;11.93;;;;;;;;;;2611321;47;20986;-76
2022/03/18 02:03:05;;;;;;;18.27;12.67;;;2.80;99.90;;;;;;2609370;47;20198;-76
2022/03/18 02:05:31;;;;;;;20.93;12.13;;;2.90;99.90;;;;;;2611538;47;20427;-75
2022/03/18 02:07:57;;;;;;;17.70;10.70;;;2.90;99.90;;;;;;2612205;39;20762;-76
2022/03/18 02:10:22;;;;;;;16.90;10.60;;;3.00;99.90;;;;;;2610454;54;20483;-77
2022/03/18 02:12:48;;;;;;;18.57;11.10;;;2.90;99.90;;;;;;2611628;47;20170;-77
2022/03/18 02:15:14;;;;;;;16.70;11.97;;;2.90;99.90;;;;;;2611293;54;20391;-76
2022/03/18 02:17:40;;;;;;;14.97;10.60;;;2.90;99.90;;;;;;2610665;47;20213;-77
2022/03/18 02:20:07;;;;;;;14.13;11.37;;;2.80;99.90;;;;;;2611026;47;20174;-76
2022/03/18 02:22:42;;;;;;;20.93;12.03;;;2.70;99.90;;;;;;2610935;47;21160;-76
2022/03/18 02:25:09;;;;;;;16.93;10.10;;;2.70;99.90;;;;;;2610213;54;20404;-76
2022/03/18 02:27:39;;;;;;;13.73;11.20;;;2.70;99.90;;;;;;2611410;47;20419;-76
2022/03/18 02:30:07;;;;;;;14.90;10.83;;;2.80;99.90;;;;;;2611736;54;20424;-76
2022/03/18 02:32:34;;;;;;;22.97;12.30;;;2.80;99.90;;;;;;2611640;47;20483;-76
2022/03/18 02:35:03;;;;;;;21.50;11.27;;;2.70;99.90;;;;;;2610475;54;21435;-75
2022/03/18 02:37:29;;;;;;;17.90;11.50;;;2.70;99.90;;;;;;2608996;54;20526;-77
2022/03/18 02:39:55;;;;;;;17.97;10.47;;;2.60;99.90;;;;;;2611564;39;20829;-75
2022/03/18 02:42:22;;;;;;;19.40;11.40;;;2.60;99.90;;;;;;2610921;54;20970;-77
2022/03/18 02:44:49;;;;;;;15.83;11.40;;;2.60;99.90;;;;;;2611106;47;20423;-75
2022/03/18 02:47:14;;;;;;;18.27;12.70;;;2.80;99.90;;;;;;2612159;54;20506;-76
2022/03/18 02:49:40;;;;;;;13.83;10.83;;;2.90;99.90;;;;;;2610994;54;21286;-77
2022/03/18 02:52:06;;;;;;;15.80;11.40;;;2.90;99.90;;;;;;2610885;54;21208;-77
2022/03/18 02:54:33;;;;;;;21.30;13.47;;;2.90;99.90;;;;;;2610398;47;20415;-77
2022/03/18 02:56:59;;;;;;;20.23;12.47;;;2.80;99.90;;;;;;2609525;47;20507;-77
2022/03/18 02:59:25;;;;;;;19.20;12.10;;;2.70;99.90;;;;;;2611771;47;20420;-77
2022/03/18 03:01:51;;;;;;;15.20;11.80;;;2.50;99.90;;;;;;2611310;46;20484;-76
2022/03/18 03:04:17;;;;;;;18.60;12.90;;;2.30;99.90;;;;;;2611612;47;20175;-77
2022/03/18 03:09:27;;;;;;;19.20;11.50;;;2.30;99.90;;;;;;2611640;47;20427;-78
2022/03/18 03:11:53;;;;;;;18.57;10.80;;;2.40;99.90;;;;;;2611597;39;21267;-77
2022/03/18 03:14:19;;;;;;;22.50;12.03;;;2.40;99.90;;;;;;2610542;47;20535;-76
2022/03/18 03:16:46;;;;;;;17.40;11.70;;;2.50;99.90;;;;;;2610807;47;20507;-75
2022/03/18 03:19:13;;;;;;;13.80;9.70;;;;;;;;;;2611704;47;20459;-75
2022/03/18 03:21:40;;;;;;;15.43;12.00;;;2.50;99.90;;;;;;2611052;47;20423;-76
2022/03/18 03:24:06;;;;;;;12.43;9.53;;;2.40;99.90;;;;;;2611076;54;20510;-76
2022/03/18 03:26:33;;;;;;;13.57;10.17;;;2.40;99.90;;;;;;2611130;54;20428;-77
2022/03/18 03:28:59;;;;;;;12.30;9.80;;;;;;;;;;2611545;47;21010;-77
2022/03/18 03:31:25;;;;;;;11.97;10.43;;;2.30;99.90;;;;;;2611319;47;20949;-78
2022/03/18 03:33:51;;;;;;;14.60;11.03;;;2.30;99.90;;;;;;2611500;47;20406;-77
2022/03/18 03:36:18;;;;;;;18.30;11.50;;;2.30;99.90;;;;;;2610639;47;20171;-77
2022/03/18 03:38:44;;;;;;;15.73;10.77;;;2.30;99.90;;;;;;2611279;47;20502;-78
2022/03/18 03:41:10;;;;;;;19.93;10.67;;;2.10;99.90;;;;;;2610985;47;20175;-77
2022/03/18 03:43:36;;;;;;;13.10;10.50;;;2.10;99.90;;;;;;2611196;47;20402;-76
2022/03/18 03:46:02;;;;;;;16.23;10.53;;;2.10;99.90;;;;;;2611903;54;20991;-76
2022/03/18 03:48:28;;;;;;;18.70;10.70;;;2.00;99.90;;;;;;2611746;54;20441;-75
2022/03/18 03:50:54;;;;;;;18.13;10.17;;;2.00;99.90;;;;;;2610716;54;20430;-77
2022/03/18 03:53:20;;;;;;;18.10;10.33;;;2.10;99.90;;;;;;2611998;47;21201;-76
2022/03/18 03:55:46;;;;;;;21.20;9.93;;;;;;;;;;2610978;47;20442;-77
2022/03/18 03:58:12;;;;;;;16.60;11.13;;;2.00;99.90;;;;;;2612317;47;20450;-76
2022/03/18 04:00:38;;;;;;;13.63;10.00;;;;;;;;;;2612615;54;20428;-77
2022/03/18 04:03:04;;;;;;;17.27;10.83;;;2.20;99.90;;;;;;2612034;39;20524;-77
2022/03/18 04:05:32;;;;;;;12.93;10.27;;;2.10;99.90;;;;;;2611920;46;20426;-78
2022/03/18 04:07:58;;;;;;;18.53;11.10;;;2.00;99.90;;;;;;2611296;54;20393;-76
2022/03/18 04:10:25;;;;;;;15.80;10.43;;;2.10;99.90;;;;;;2611559;39;20784;-77
2022/03/18 04:12:53;;;;;;;13.87;11.30;;;2.00;99.90;;;;;;2610737;54;20494;-76
2022/03/18 04:15:19;;;;;;;15.20;9.90;;;;;;;;;;2610755;47;20454;-78
2022/03/18 04:17:47;;;;;;;24.23;11.00;;;2.00;99.90;;;;;;2611732;46;20491;-76
2022/03/18 04:20:22;;;;;;;26.03;11.00;;;1.90;99.90;;;;;;2612014;54;20494;-75
2022/03/18 04:22:52;;;;;;;18.97;11.03;;;1.90;99.90;;;;;;2611221;39;21453;-76
2022/03/18 04:25:20;;;;;;;14.10;10.13;;;2.00;99.90;;;;;;2611716;47;20439;-75
2022/03/18 04:27:46;;;;;;;11.77;9.73;;;1.90;99.90;;;;;;2611157;47;20998;-75
2022/03/18 04:30:13;;;;;;;15.43;9.40;;;1.80;99.90;;;;;;2611578;54;20502;-75
2022/03/18 04:32:40;;;;;;;14.30;10.53;;;1.60;99.90;;;;;;2612266;47;20420;-75
2022/03/18 04:35:07;;;;;;;13.70;10.20;;;1.50;99.90;;;;;;2610844;47;21057;-76
2022/03/18 04:37:33;;;;;;;14.70;9.53;;;1.70;99.90;;;;;;2611380;47;20419;-76
2022/03/18 04:39:59;;;;;;;12.73;8.93;;;1.70;99.90;;;;;;2612609;39;20757;-77
2022/03/18 04:42:25;;;;;;;12.77;8.90;;;1.60;99.90;;;;;;2610565;47;20419;-75
2022/03/18 04:44:52;;;;;;;14.10;9.20;;;;;;;;;;2611646;54;20286;-76
2022/03/18 04:47:18;;;;;;;16.23;10.50;;;1.50;99.90;;;;;;2611539;47;20209;-75
2022/03/18 04:49:44;;;;;;;15.00;10.83;;;1.50;99.90;;;;;;2612217;47;20950;-76
2022/03/18 04:52:10;;;;;;;15.17;10.97;;;1.50;99.90;;;;;;2611724;47;20534;-76
2022/03/18 04:54:36;;;;;;;17.73;10.97;;;1.40;99.90;;;;;;2612206;46;20470;-74
2022/03/18 04:57:20;;;;;;;17.77;9.77;;;1.30;99.90;;;;;;2611795;47;20423;-77
2022/03/18 04:59:52;;;;;;;12.47;9.47;;;1.30;99.90;;;;;;2612491;54;20150;-76
2022/03/18 05:02:20;;;;;;;17.97;10.17;;;0.90;99.90;;;;;;2611395;54;20483;-75
2022/03/18 05:04:48;;;;;;;19.73;9.70;;;1.30;99.90;;;;;;2610419;54;20414;-77
2022/03/18 05:07:15;;;;;;;14.87;10.30;;;1.30;99.90;;;;;;2611415;47;20410;-77
2022/03/18 05:09:41;;;;;;;11.60;8.70;;;1.20;99.90;;;;;;2612479;54;20449;-76
2022/03/18 05:12:12;;;;;;;10.53;9.43;;;1.20;99.90;;;;;;2611559;46;21159;-76
2022/03/18 05:14:39;;;;;;;15.07;10.37;;;1.10;99.90;;;;;;2611055;47;20415;-76
2022/03/18 05:17:07;;;;;;;13.00;9.73;;;1.10;99.90;;;;;;2610779;54;21100;-76
2022/03/18 05:19:34;;;;;;;14.77;11.80;;;1.10;99.90;;;;;;2612205;46;20957;-76
2022/03/18 05:22:00;;;;;;;12.93;9.70;;;1.00;99.90;;;;;;2612010;47;20965;-75
2022/03/18 05:24:26;;;;;;;19.77;11.20;;;;;;;;;;2611336;47;20982;-76
2022/03/18 05:26:57;;;;;;;19.13;11.17;;;1.00;99.90;;;;;;2610924;47;20412;-76
2022/03/18 05:29:25;;;;;;;14.00;11.27;;;1.20;99.90;;;;;;2612179;46;20423;-76
2022/03/18 05:31:52;;;;;;;19.70;10.17;;;1.30;99.90;;;;;;2611811;47;20402;-77
2022/03/18 05:34:18;;;;;;;13.70;9.47;;;1.30;99.90;;;;;;2612633;31;20862;-76
2022/03/18 05:36:44;;;;;;;13.80;9.93;;;1.20;99.90;;;;;;2612040;39;20891;-78
2022/03/18 05:39:10;;;;;;;14.03;9.67;;;;;;;;;;2610391;47;20412;-77
2022/03/18 05:41:37;;;;;;;12.67;9.10;;;1.10;99.90;;;;;;2611473;47;20395;-77
2022/03/18 05:44:04;;;;;;;17.40;9.57;;;1.10;99.90;;;;;;2611477;47;20407;-77
2022/03/18 05:46:30;;;;;;;12.90;9.50;;;-0.40;99.90;;;;;;2610038;47;20495;-77
2022/03/18 05:48:56;;;;;;;17.47;11.40;;;1.10;99.90;;;;;;2611985;47;21486;-76
2022/03/18 05:51:22;;;;;;;11.73;10.00;;;1.10;99.90;;;;;;2612354;47;20446;-76
2022/03/18 05:53:48;;;;;;;11.90;10.10;;;1.00;99.90;;;;;;2611390;47;20403;-79
2022/03/18 05:58:59;;;;;;;15.73;11.13;;;1.00;99.90;;;;;;2610782;54;20203;-78
2022/03/18 06:01:26;;;;;;;14.00;10.73;;;1.00;99.90;;;;;;2610922;54;20442;-78
2022/03/18 06:03:52;;;;;;;13.97;9.63;;;1.50;99.90;;;;;;2612042;47;20442;-77
2022/03/18 06:06:18;;;;;;;15.13;9.97;;;1.20;99.90;;;;;;2611945;47;20778;-77
2022/03/18 06:14:14;;;;;;;16.53;9.40;;;1.30;99.90;;;;;;2611344;47;20526;-78
2022/03/18 06:16:40;;;;;;;15.50;9.83;;;1.30;99.90;;;;;;2610593;54;20379;-76
2022/03/18 06:19:06;;;;;;;17.40;10.13;;;1.30;99.90;;;;;;2610734;54;20434;-77
2022/03/18 06:21:32;;;;;;;10.40;8.57;;;1.40;99.90;;;;;;2610451;54;20418;-80
2022/03/18 06:23:58;;;;;;;14.97;11.70;;;1.60;99.90;;;;;;2611029;54;20400;-76
2022/03/18 06:26:23;;;;;;;16.23;12.10;;;1.80;99.90;;;;;;2612115;31;20872;-78
2022/03/18 06:28:50;;;;;;;15.90;11.70;;;1.90;99.90;;;;;;2611080;47;20442;-77
2022/03/18 06:31:16;;;;;;;17.77;12.60;;;2.20;99.90;;;;;;2611640;54;20157;-76
2022/03/18 06:33:44;;;;;;;17.83;13.17;;;2.70;99.90;;;;;;2611157;39;21020;-76
2022/03/18 06:36:14;;;;;;;19.33;12.73;;;3.10;99.90;;;;;;2608474;54;20379;-78
2022/03/18 06:38:41;;;;;;;17.00;12.30;;;3.70;99.90;;;;;;2611378;54;21891;-78
2022/03/18 06:41:06;;;;;;;12.57;10.87;;;4.30;99.90;;;;;;2609979;54;21525;-77
2022/03/18 06:43:33;;;;;;;22.03;10.67;;;4.80;99.90;;;;;;2611055;54;20471;-77
2022/03/18 06:45:58;;;;;;;15.20;9.90;;;5.40;99.90;;;;;;2610015;54;20948;-77
2022/03/18 06:48:25;;;;;;;12.67;10.03;;;6.20;99.90;;;;;;2610263;47;20415;-77
2022/03/18 06:50:51;;;;;;;13.83;9.10;;;6.40;99.90;;;;;;2609476;47;20483;-76
2022/03/18 06:53:17;;;;;;;49.10;11.80;;;7.00;99.90;;;;;;2609603;31;20886;-77
2022/03/18 06:55:44;;;;;;;13.93;8.73;;;7.40;99.90;;;;;;2610332;39;20810;-78
2022/03/18 06:58:10;;;;;;;12.03;8.77;;;7.90;99.90;;;;;;2611134;54;20439;-77
2022/03/18 07:00:38;;;;;;;13.20;8.60;;;8.40;99.90;;;;;;2611011;54;20164;-77
2022/03/18 07:03:04;;;;;;;12.70;8.83;;;8.80;99.90;;;;;;2611433;54;20425;-76
2022/03/18 07:05:32;;;;;;;9.93;8.90;;;8.70;99.90;;;;;;2609015;54;20469;-77
2022/03/18 07:07:58;;;;;;;16.53;10.37;;;8.90;99.90;;;;;;2609650;54;20387;-78
2022/03/18 07:10:24;;;;;;;9.33;8.43;;;9.10;99.90;;;;;;2611961;47;20432;-77
2022/03/18 07:12:50;;;;;;;10.13;8.10;;;9.30;96.20;;;;;;2612916;51;20452;-77
2022/03/18 07:15:16;;;;;;;11.97;8.20;;;9.40;98.90;;;;;;2611716;47;20495;-76
2022/03/18 07:18:01;;;;;;;12.33;8.57;;;9.60;94.30;;;;;;2611014;54;20422;-76
2022/03/18 07:20:38;;;;;;;11.70;8.70;;;9.90;91.40;;;;;;2608828;54;20423;-77
2022/03/18 07:23:15;;;;;;;18.90;8.10;;;10.30;82.60;;;;;;2606419;54;20403;-77
2022/03/18 07:25:44;;;;;;;11.80;9.53;;;10.60;76.80;;;;;;2609731;54;20467;-76
2022/03/18 07:28:12;;;;;;;17.53;9.20;;;10.60;62.50;;;;;;2611776;39;20895;-76
2022/03/18 07:30:39;;;;;;;13.63;8.03;;;10.90;62.70;;;;;;2613766;54;20414;-76
2022/03/18 07:33:05;;;;;;;12.97;8.77;;;11.10;57.60;;;;;;2615610;47;20411;-75
2022/03/18 07:35:32;;;;;;;18.37;8.57;;;11.40;52.00;;;;;;2633420;36;20482;-76
2022/03/18 07:37:58;;;;;;;11.83;8.00;;;11.70;46.80;;;;;;2609257;46;20471;-77
2022/03/18 07:40:24;;;;;;;10.37;7.50;;;12.20;41.00;;;;;;2605853;47;20443;-77
2022/03/18 07:42:52;;;;;;;11.83;8.40;;;12.60;36.90;;;;;;2608741;47;20458;-76
2022/03/18 07:45:44;;;;;;;12.20;8.50;;;12.30;35.80;;;;;;2605618;51;20416;-76
2022/03/18 07:48:10;;;;;;;14.03;9.00;;;12.50;32.80;;;;;;2607044;39;20816;-76
2022/03/18 07:50:39;;;;;;;14.00;8.50;;;12.30;33.70;;;;;;2607018;39;20813;-76
2022/03/18 07:53:08;;;;;;;14.90;8.47;;;12.50;32.80;;;;;;2607135;54;20158;-76
2022/03/18 07:55:36;;;;;;;10.40;8.27;;;12.60;30.50;;;;;;2607685;47;20978;-77
2022/03/18 07:58:02;;;;;;;14.60;9.13;;;12.70;28.90;;;;;;2607099;51;20446;-77
2022/03/18 08:00:28;;;;;;;12.83;9.83;;;13.50;29.70;;;;;;2606545;47;20427;-77
2022/03/18 08:02:55;;;;;;;14.50;8.43;;;13.50;21.80;;;;;;2609325;39;20824;-78
2022/03/18 08:05:22;;;;;;;14.50;8.77;;;13.50;21.80;;;;;;2609110;47;20423;-78
2022/03/18 08:07:48;;;;;;;10.50;7.80;;;13.80;19.80;;;;;;2609774;39;20814;-77
2022/03/18 08:10:15;;;;;;;9.33;8.40;;;13.80;18.70;;;;;;2607584;49;20447;-78
2022/03/18 08:12:43;;;;;;;7.90;7.00;;;13.80;18.30;;;;;;2607975;47;20947;-77
2022/03/18 08:15:11;;;;;;;11.23;6.90;;;13.60;20.90;;;;;;2608787;47;20431;-77
2022/03/18 08:17:38;;;;;;;10.83;5.63;;;13.70;16.80;;;;;;2609858;54;21639;-77
2022/03/18 08:20:08;;;;;;;7.70;5.83;;;13.60;16.50;;;;;;2610027;54;20411;-77
2022/03/18 08:22:38;;;;;;;7.43;6.73;;;13.30;14.30;;;;;;2609516;47;20440;-77
2022/03/18 08:25:06;;;;;;;7.10;6.10;;;13.00;17.60;;;;;;2608478;39;20824;-76
2022/03/18 08:27:32;;;;;;;9.60;6.37;;;13.40;16.60;;;;;;2608700;54;21002;-77
2022/03/18 08:29:59;;;;;;;10.20;6.00;;;13.70;15.00;;;;;;2608757;47;20423;-76
2022/03/18 08:32:27;;;;;;;14.00;6.83;;;13.90;12.20;;;;;;2609102;54;20442;-77
2022/03/18 08:34:54;;;;;;;8.37;6.27;;;14.10;15.70;;;;;;2608841;54;20403;-77
2022/03/18 08:37:56;;;;;;;11.77;6.40;;;14.00;12.00;;;;;;2609619;54;20656;-75
2022/03/18 08:40:07;;;;;;;11.30;6.10;;;14.50;10.10;;;;;;2609357;31;20897;-75
2022/03/18 08:42:34;;;;;;;9.83;5.70;;;14.30;9.50;;;;;;2609679;47;20435;-76
2022/03/18 08:45:00;;;;;;;9.53;6.00;;;14.50;10.30;;;;;;2613447;54;20415;-76
2022/03/18 08:47:27;;;;;;;8.10;5.20;;;14.50;9.60;;;;;;2613156;54;20447;-75
2022/03/18 08:49:54;;;;;;;6.73;5.00;;;14.50;9.00;;;;;;2612908;51;20474;-76
2022/03/18 08:52:20;;;;;;;7.00;5.40;;;14.30;8.20;;;;;;2610035;54;20403;-75
2022/03/18 08:54:46;;;;;;;13.07;6.43;;;14.50;6.60;;;;;;2607691;47;21198;-76
2022/03/18 08:57:14;;;;;;;10.83;5.43;;;14.50;6.00;;;;;;2609184;46;20178;-75
2022/03/18 08:59:43;;;;;;;8.13;5.70;;;14.90;6.00;;;;;;2610705;39;20982;-75
2022/03/18 09:02:11;;;;;;;10.83;7.10;;;14.90;5.80;;;;;;2611194;54;20450;-75
2022/03/18 09:04:37;;;;;;;8.63;5.67;;;15.20;5.00;;;;;;2612962;47;20470;-76
2022/03/18 09:07:04;;;;;;;6.80;5.60;;;15.50;1.50;;;;;;2611161;47;22569;-76
2022/03/18 09:09:29;;;;;;;7.63;6.40;;;15.60;1.00;;;;;;2613182;39;21013;-76
2022/03/18 09:11:55;;;;;;;11.03;6.70;;;15.60;1.00;;;;;;2612573;47;20435;-76
2022/03/18 09:14:21;;;;;;;7.73;6.93;;;15.50;1.00;;;;;;2612166;47;20307;-76
2022/03/18 09:16:49;;;;;;;7.93;6.10;;;15.60;1.20;;;;;;2613064;51;20432;-76
2022/03/18 09:19:16;;;;;;;8.97;6.20;;;15.80;1.40;;;;;;2611204;54;20230;-76
2022/03/18 09:21:45;;;;;;;9.87;6.17;;;16.00;1.00;;;;;;2612801;54;20578;-76
2022/03/18 09:24:12;;;;;;;7.10;5.63;;;16.00;1.00;;;;;;2612953;54;20532;-76
2022/03/18 09:26:40;;;;;;;6.80;6.20;;;15.90;1.00;;;;;;2612915;54;20499;-75
2022/03/18 09:29:06;;;;;;;10.40;6.37;;;15.70;1.00;;;;;;2609182;54;20426;-76
2022/03/18 09:31:32;;;;;;;7.60;6.87;;;15.50;1.00;;;;;;2610691;54;20423;-74
2022/03/18 09:33:58;;;;;;;10.03;7.30;;;15.40;1.00;;;;;;2612948;47;20173;-77
2022/03/18 09:36:25;;;;;;;8.73;6.43;;;15.80;3.00;;;;;;2609526;47;20435;-77
2022/03/18 09:38:51;;;;;;;11.30;7.73;;;16.00;4.10;;;;;;2611614;47;20495;-76
2022/03/18 09:41:18;;;;;;;10.47;9.57;;;15.70;1.00;;;;;;2611852;47;20431;-75
2022/03/18 09:43:44;;;;;;;10.37;9.47;;;15.70;1.00;;;;;;2613317;47;20428;-75
2022/03/18 09:46:11;;;;;;;9.90;9.30;;;15.70;1.00;;;;;;2613313;54;20502;-76
2022/03/18 09:48:39;;;;;;;8.63;7.93;;;15.90;1.00;;;;;;2613888;54;20419;-75
2022/03/18 09:51:09;;;;;;;9.77;8.83;;;15.60;1.00;;;;;;2613218;54;20424;-76
2022/03/18 09:53:36;;;;;;;10.57;9.67;;;;;;;;;;2613028;47;20530;-76
2022/03/18 09:56:04;;;;;;;10.57;9.67;;;15.70;1.00;;;;;;2610659;54;20392;-76
2022/03/18 09:58:30;;;;;;;10.33;9.27;;;16.20;1.00;;;;;;2613497;54;20417;-76
2022/03/18 10:00:58;;;;;;;8.30;7.70;;;16.20;2.70;;;;;;2611224;47;22054;-75
2022/03/18 10:03:38;;;;;;;8.57;7.97;;;16.30;1.00;;;;;;2612580;54;20438;-76
2022/03/18 10:06:06;;;;;;;9.67;8.77;;;16.50;1.00;;;;;;2612618;47;21036;-76
2022/03/18 10:08:35;;;;;;;9.50;8.70;;;16.50;1.00;;;;;;2612032;47;20424;-76
2022/03/18 10:11:13;;;;;;;10.10;9.50;;;16.40;1.00;;;;;;2607823;46;20416;-75
2022/03/18 10:14:01;;;;;;;10.00;9.20;;;16.30;1.00;;;;;;2609417;54;20415;-75
2022/03/18 10:16:42;;;;;;;12.40;9.03;;;16.50;1.00;;;;;;2608337;47;20946;-76
2022/03/18 10:19:12;;;;;;;9.87;9.17;;;16.60;1.00;;;;;;2607937;47;20970;-77
2022/03/18 10:21:51;;;;;;;9.70;9.00;;;16.60;1.00;;;;;;2609358;54;20400;-77
2022/03/18 10:24:18;;;;;;;11.20;10.50;;;16.30;1.00;;;;;;2610116;54;20403;-78
2022/03/18 10:26:44;;;;;;;9.83;8.87;;;16.00;1.00;;;;;;2608851;47;20451;-77
2022/03/18 10:29:14;;;;;;;8.90;8.20;;;16.10;1.00;;;;;;2608766;47;21042;-77
2022/03/18 10:31:45;;;;;;;9.70;8.80;;;15.70;4.10;;;;;;2608959;54;20447;-77
2022/03/18 10:37:07;;;;;;;12.80;9.77;;;16.00;1.00;;;;;;2609493;54;20393;-76
2022/03/18 10:39:48;;;;;;;10.73;9.90;;;16.00;1.00;;;;;;2607352;47;20466;-77
2022/03/18 10:42:16;;;;;;;12.70;11.47;;;15.90;1.00;;;;;;2608563;47;20922;-77
2022/03/18 10:44:45;;;;;;;9.90;9.10;;;16.10;1.00;;;;;;2608553;54;20420;-76
2022/03/18 10:47:24;;;;;;;11.30;10.30;;;16.30;1.00;;;;;;2609194;54;20396;-76
2022/03/18 10:49:50;;;;;;;12.63;11.33;;;16.30;1.00;;;;;;2609764;47;20503;-74
2022/03/18 10:52:15;;;;;;;11.10;10.30;;;16.70;1.00;;;;;;2609302;47;20443;-76
2022/03/18 10:54:41;;;;;;;12.73;11.63;;;17.00;1.00;;;;;;2609387;54;20255;-76
2022/03/18 10:57:07;;;;;;;13.37;12.13;;;17.00;1.00;;;;;;2609193;46;20191;-77
2022/03/18 10:59:35;;;;;;;13.40;12.20;;;16.80;1.00;;;;;;2608989;46;20254;-77
2022/03/18 11:02:05;;;;;;;12.00;10.93;;;16.70;1.00;;;;;;2608632;47;20459;-79
2022/03/18 11:04:32;;;;;;;12.33;10.90;;;16.60;1.00;;;;;;2609071;46;20461;-75
2022/03/18 11:12:31;;;;;;;12.47;11.50;;;17.10;1.00;;;;;;2608763;54;20424;-76
2022/03/18 11:14:58;;;;;;;12.33;11.43;;;17.40;1.00;;;;;;2609873;47;20419;-77
2022/03/18 11:17:24;;;;;;;13.20;12.03;;;17.60;1.00;;;;;;2611033;54;21740;-76
2022/03/18 11:19:52;;;;;;;12.37;11.57;;;17.70;1.00;;;;;;2611318;47;20443;-76
2022/03/18 11:22:21;;;;;;;12.27;11.20;;;17.50;1.00;;;;;;2612232;54;20407;-75
2022/03/18 11:24:50;;;;;;;10.93;10.13;;;17.30;1.00;;;;;;2608932;47;20460;-78
2022/03/18 11:27:17;;;;;;;12.67;11.37;;;17.50;1.00;;;;;;2609851;54;21031;-76
2022/03/18 11:29:43;;;;;;;11.67;10.80;;;17.90;1.00;;;;;;2627570;36;20638;-76
2022/03/18 11:32:09;;;;;;;10.90;10.10;;;17.90;1.00;;;;;;2609638;54;20408;-76
2022/03/18 11:34:58;;;;;;;12.10;10.93;;;17.60;1.00;;;;;;2609418;54;20395;-76
2022/03/18 11:37:25;;;;;;;13.40;12.10;;;16.80;1.00;;;;;;2608853;54;20151;-76
2022/03/18 11:39:52;;;;;;;11.90;11.10;;;16.90;1.00;;;;;;2609170;54;20624;-75
2022/03/18 11:42:20;;;;;;;10.53;9.70;;;17.00;1.00;;;;;;2609230;47;20419;-76
2022/03/18 11:44:46;;;;;;;12.23;10.97;;;17.60;1.00;;;;;;2609964;46;20431;-77
2022/03/18 11:47:20;;;;;;;12.43;11.50;;;17.30;1.00;;;;;;2609231;47;20423;-76
2022/03/18 11:49:53;;;;;;;10.73;10.03;;;17.70;1.00;;;;;;2608899;47;20292;-77
2022/03/18 11:52:18;;;;;;;12.80;11.90;;;17.40;1.00;;;;;;2608839;54;20408;-77
2022/03/18 11:54:58;;;;;;;13.00;11.73;;;17.50;1.00;;;;;;2608443;54;20419;-75
2022/03/18 11:57:36;;;;;;;11.43;10.53;;;17.40;1.00;;;;;;2610016;39;20525;-76
2022/03/18 12:00:05;;;;;;;11.67;10.27;;;17.60;1.00;;;;;;2608042;47;20435;-76
2022/03/18 12:02:32;;;;;;;15.27;10.07;;;17.90;1.00;;;;;;2609419;39;20836;-77
2022/03/18 12:05:00;;;;;;;11.20;10.50;;;18.10;1.00;;;;;;2609532;39;20509;-76
2022/03/18 12:07:28;;;;;;;12.23;11.07;;;18.10;1.00;;;;;;2608243;54;20403;-77
2022/03/18 12:10:09;;;;;;;11.50;10.60;;;17.90;1.00;;;;;;2607813;54;20958;-76
2022/03/18 12:12:43;;;;;;;11.50;10.80;;;18.00;1.00;;;;;;2608018;47;20977;-77
2022/03/18 12:15:12;;;;;;;12.67;11.77;;;18.30;1.00;;;;;;2607452;54;20955;-77
2022/03/18 12:17:42;;;;;;;11.90;10.90;;;17.80;1.00;;;;;;2610130;39;20788;-76
2022/03/18 12:20:09;;;;;;;12.50;11.40;;;17.60;1.00;;;;;;2609854;54;22425;-77
2022/03/18 12:22:39;;;;;;;13.50;11.60;;;17.60;1.00;;;;;;2609834;39;21135;-76
2022/03/18 12:25:06;;;;;;;13.47;12.17;;;18.50;1.00;;;;;;2608662;54;20412;-77
2022/03/18 12:27:36;;;;;;;11.23;10.10;;;18.50;1.00;;;;;;2609133;47;20467;-78
2022/03/18 12:30:08;;;;;;;11.40;10.60;;;18.50;1.00;;;;;;2609663;47;20423;-77
2022/03/18 12:32:38;;;;;;;10.53;9.90;;;18.40;1.00;;;;;;2610285;54;20395;-78
2022/03/18 12:35:05;;;;;;;11.63;10.73;;;18.40;1.00;;;;;;2609245;46;20433;-77
2022/03/18 12:37:32;;;;;;;12.60;11.50;;;18.80;1.00;;;;;;2610333;54;20408;-76
2022/03/18 12:40:04;;;;;;;12.20;11.03;;;18.90;1.00;;;;;;2608718;54;20949;-77
2022/03/18 12:42:30;;;;;;;11.50;10.70;;;18.70;1.00;;;;;;2610387;54;20839;-75
2022/03/18 12:45:02;;;;;;;11.90;11.00;;;18.60;1.00;;;;;;2609784;54;20412;-76
2022/03/18 12:47:32;;;;;;;12.07;9.90;;;19.00;1.00;;;;;;2609096;54;20521;-77
2022/03/18 12:50:00;;;;;;;10.40;9.70;;;19.00;1.00;;;;;;2609562;54;20592;-77
2022/03/18 12:52:26;;;;;;;9.53;9.00;;;18.80;1.00;;;;;;2609239;54;20440;-76
2022/03/18 12:55:06;;;;;;;10.87;9.70;;;18.70;1.00;;;;;;2608188;47;20562;-76
2022/03/18 12:57:34;;;;;;;9.30;8.60;;;18.60;1.00;;;;;;2609224;54;20420;-76
2022/03/18 13:00:00;;;;;;;12.40;9.50;;;18.40;1.00;;;;;;2608146;54;20415;-78
2022/03/18 13:02:26;;;;;;;9.10;8.30;;;18.40;1.00;;;;;;2609176;54;20447;-76
2022/03/18 13:04:58;;;;;;;8.60;7.90;;;18.40;1.00;;;;;;2608562;54;20941;-76
2022/03/18 13:07:26;;;;;;;9.10;8.50;;;18.20;1.00;;;;;;2608899;47;20934;-78
2022/03/18 13:09:53;;;;;;;10.13;9.03;;;18.20;1.00;;;;;;2609258;47;20469;-76